PWSweather.com
Personal Weather Stations
Station Observations
ONALIVA
None, Vilanova I La GeltruES 08800

NoneVilanova I La GeltruES 08800

Lat: 41.22347, Lon: 1.72726

Elevation: 47

Station Type: W-8681

ramon.artigas@gmail.com

High Low Average
Temperature 63.3°F17.4°C 47.7°F8.7°C 56.7°F13.7°C
Dew Point 54.0°F12.2°C 36.5°F2.5°C 46.2°F7.9°C
Winds 10.7 mph 17.2 kmh Calm Calm 3.0 mph SW4.8 kmh SW
Wind Gusts 24.4 mph39.3 kmh -- 6.0 mph9.7 kmh
Humidity 86% 41% 69%
Pressure 29.22 in989.5 mb 29.06 in984.1 mb -
Precipitation 0.08 in2.0 mm - -
Hour Temp Dew Point Humidity Winds Wind Gusts Pressure Precip Precip Rate Daily Precip Total
12:01 AM 53.6°F12.0°C 46.6°F8.1°C 77% Calm Calm -- 29.24 in990.2 mb 0.00 in0.0 mm 0.00 in0.0 mm 0.00 in0.0 mm
12:07 AM 53.6°F12.0°C 46.6°F8.1°C 77% Calm Calm 2.2 mph3.5 kmh 29.24 in990.2 mb 0.00 in0.0 mm 0.00 in0.0 mm 0.00 in0.0 mm
12:12 AM 53.4°F11.9°C 46.4°F8.0°C 77% Calm Calm -- 29.24 in990.2 mb 0.00 in0.0 mm 0.00 in0.0 mm 0.00 in0.0 mm
12:17 AM 53.4°F11.9°C 46.4°F8.0°C 77% Calm Calm -- 29.24 in990.2 mb 0.00 in0.0 mm 0.00 in0.0 mm 0.00 in0.0 mm
12:21 AM 53.1°F11.7°C 46.0°F7.8°C 77% 1.6 mph NW2.6 kmh NW 3.1 mph5.0 kmh 29.24 in990.2 mb 0.00 in0.0 mm 0.00 in0.0 mm 0.00 in0.0 mm
12:27 AM 52.9°F11.6°C 46.2°F7.9°C 78% Calm Calm 0.7 mph1.1 kmh 29.23 in989.8 mb 0.00 in0.0 mm 0.00 in0.0 mm 0.00 in0.0 mm
12:32 AM 52.9°F11.6°C 46.2°F7.9°C 78% 0.7 mph 1.1 kmh 3.1 mph5.0 kmh 29.23 in989.8 mb 0.00 in0.0 mm 0.00 in0.0 mm 0.00 in0.0 mm
12:37 AM 52.9°F11.6°C 46.5°F8.1°C 79% 3.1 mph NW5.0 kmh NW 5.4 mph8.7 kmh 29.22 in989.5 mb 0.00 in0.0 mm 0.00 in0.0 mm 0.00 in0.0 mm
12:41 AM 52.9°F11.6°C 46.5°F8.1°C 79% Calm Calm -- 29.23 in989.8 mb 0.00 in0.0 mm 0.00 in0.0 mm 0.00 in0.0 mm
12:47 AM 52.9°F11.6°C 46.5°F8.1°C 79% Calm Calm -- 29.23 in989.8 mb 0.00 in0.0 mm 0.00 in0.0 mm 0.00 in0.0 mm
12:52 AM 52.9°F11.6°C 46.5°F8.1°C 79% 1.6 mph NW2.6 kmh NW 3.1 mph5.0 kmh 29.22 in989.5 mb 0.00 in0.0 mm 0.00 in0.0 mm 0.00 in0.0 mm
12:57 AM 52.9°F11.6°C 46.5°F8.1°C 79% Calm Calm 3.1 mph5.0 kmh 29.22 in989.5 mb 0.00 in0.0 mm 0.00 in0.0 mm 0.00 in0.0 mm
01:01 AM 52.9°F11.6°C 46.5°F8.1°C 79% Calm Calm -- 29.22 in989.5 mb 0.00 in0.0 mm 0.00 in0.0 mm 0.00 in0.0 mm
01:07 AM 52.9°F11.6°C 46.5°F8.1°C 79% Calm Calm -- 29.21 in989.2 mb 0.00 in0.0 mm 0.00 in0.0 mm 0.00 in0.0 mm
01:12 AM 53.1°F11.7°C 46.7°F8.2°C 79% Calm Calm -- 29.21 in989.2 mb 0.00 in0.0 mm 0.00 in0.0 mm 0.00 in0.0 mm
01:17 AM 53.1°F11.7°C 46.7°F8.2°C 79% Calm Calm -- 29.21 in989.2 mb 0.00 in0.0 mm 0.00 in0.0 mm 0.00 in0.0 mm
01:21 AM 53.2°F11.8°C 46.9°F8.3°C 79% Calm Calm -- 29.20 in988.8 mb 0.00 in0.0 mm 0.00 in0.0 mm 0.00 in0.0 mm
01:27 AM 53.2°F11.8°C 46.6°F8.1°C 78% Calm Calm -- 29.20 in988.8 mb 0.00 in0.0 mm 0.00 in0.0 mm 0.00 in0.0 mm
01:32 AM 53.2°F11.8°C 46.6°F8.1°C 78% Calm Calm -- 29.20 in988.8 mb 0.00 in0.0 mm 0.00 in0.0 mm 0.00 in0.0 mm
01:37 AM 53.2°F11.8°C 46.6°F8.1°C 78% Calm Calm -- 29.20 in988.8 mb 0.00 in0.0 mm 0.00 in0.0 mm 0.00 in0.0 mm
01:41 AM 53.2°F11.8°C 46.6°F8.1°C 78% Calm Calm -- 29.20 in988.8 mb 0.00 in0.0 mm 0.00 in0.0 mm 0.00 in0.0 mm
01:47 AM 53.2°F11.8°C 46.6°F8.1°C 78% Calm Calm -- 29.20 in988.8 mb 0.00 in0.0 mm 0.00 in0.0 mm 0.00 in0.0 mm
01:52 AM 53.4°F11.9°C 46.7°F8.2°C 78% Calm Calm -- 29.20 in988.8 mb 0.00 in0.0 mm 0.00 in0.0 mm 0.00 in0.0 mm
01:57 AM 53.6°F12.0°C 47.2°F8.4°C 79% Calm Calm -- 29.19 in988.5 mb 0.00 in0.0 mm 0.00 in0.0 mm 0.00 in0.0 mm
02:01 AM 53.6°F12.0°C 47.2°F8.4°C 79% Calm Calm -- 29.20 in988.8 mb 0.00 in0.0 mm 0.00 in0.0 mm 0.00 in0.0 mm
02:07 AM 53.6°F12.0°C 46.9°F8.3°C 78% Calm Calm -- 29.19 in988.5 mb 0.00 in0.0 mm 0.00 in0.0 mm 0.00 in0.0 mm
02:12 AM 53.6°F12.0°C 46.9°F8.3°C 78% 1.6 mph E2.6 kmh E 3.1 mph5.0 kmh 29.19 in988.5 mb 0.00 in0.0 mm 0.00 in0.0 mm 0.00 in0.0 mm
02:17 AM 53.6°F12.0°C 46.9°F8.3°C 78% 1.6 mph E2.6 kmh E 3.1 mph5.0 kmh 29.19 in988.5 mb 0.00 in0.0 mm 0.00 in0.0 mm 0.00 in0.0 mm
02:21 AM 53.8°F12.1°C 47.1°F8.4°C 78% Calm Calm -- 29.18 in988.1 mb 0.00 in0.0 mm 0.00 in0.0 mm 0.00 in0.0 mm
02:27 AM 54.1°F12.3°C 47.8°F8.8°C 79% Calm Calm 1.6 mph2.6 kmh 29.18 in988.1 mb 0.00 in0.0 mm 0.00 in0.0 mm 0.00 in0.0 mm
02:32 AM 55.0°F12.8°C 49.0°F9.4°C 80% 4.5 mph NW7.2 kmh NW 6.9 mph11.1 kmh 29.18 in988.1 mb 0.00 in0.0 mm 0.00 in0.0 mm 0.00 in0.0 mm
02:37 AM 55.8°F13.2°C 49.7°F9.8°C 80% Calm Calm 0.7 mph1.1 kmh 29.17 in987.8 mb 0.00 in0.0 mm 0.00 in0.0 mm 0.00 in0.0 mm
02:41 AM 56.3°F13.5°C 50.2°F10.1°C 80% 0.7 mph NW1.1 kmh NW 3.1 mph5.0 kmh 29.17 in987.8 mb 0.00 in0.0 mm 0.00 in0.0 mm 0.00 in0.0 mm
02:47 AM 56.5°F13.6°C 50.0°F10.0°C 79% 1.6 mph SSW2.6 kmh SSW 3.8 mph6.1 kmh 29.16 in987.5 mb 0.00 in0.0 mm 0.00 in0.0 mm 0.00 in0.0 mm
02:52 AM 56.8°F13.8°C 50.4°F10.2°C 79% 3.1 mph W5.0 kmh W 5.4 mph8.7 kmh 29.16 in987.5 mb 0.00 in0.0 mm 0.00 in0.0 mm 0.00 in0.0 mm
02:57 AM 57.2°F14.0°C 50.4°F10.2°C 78% 2.2 mph NW3.5 kmh NW 4.5 mph7.2 kmh 29.16 in987.5 mb 0.00 in0.0 mm 0.00 in0.0 mm 0.00 in0.0 mm
03:01 AM 57.2°F14.0°C 50.1°F10.1°C 77% 2.2 mph NW3.5 kmh NW 4.5 mph7.2 kmh 29.16 in987.5 mb 0.00 in0.0 mm 0.00 in0.0 mm 0.00 in0.0 mm
03:07 AM 57.6°F14.2°C 50.1°F10.1°C 76% 3.1 mph NW5.0 kmh NW 5.4 mph8.7 kmh 29.15 in987.1 mb 0.00 in0.0 mm 0.00 in0.0 mm 0.00 in0.0 mm
03:12 AM 57.7°F14.3°C 49.9°F9.9°C 75% 7.6 mph NW12.2 kmh NW 12.1 mph19.5 kmh 29.15 in987.1 mb 0.00 in0.0 mm 0.00 in0.0 mm 0.00 in0.0 mm
03:17 AM 57.7°F14.3°C 49.9°F9.9°C 75% 7.6 mph NW12.2 kmh NW 12.1 mph19.5 kmh 29.15 in987.1 mb 0.00 in0.0 mm 0.00 in0.0 mm 0.00 in0.0 mm
03:21 AM 58.5°F14.7°C 49.5°F9.7°C 72% 1.6 mph NW2.6 kmh NW 4.5 mph7.2 kmh 29.14 in986.8 mb 0.00 in0.0 mm 0.00 in0.0 mm 0.00 in0.0 mm
03:27 AM 58.6°F14.8°C 49.3°F9.6°C 71% 3.8 mph NNE6.1 kmh NNE 8.3 mph13.4 kmh 29.14 in986.8 mb 0.00 in0.0 mm 0.00 in0.0 mm 0.00 in0.0 mm
03:32 AM 58.6°F14.8°C 49.3°F9.6°C 71% 6.9 mph W11.1 kmh W 11.4 mph18.3 kmh 29.13 in986.5 mb 0.00 in0.0 mm 0.00 in0.0 mm 0.00 in0.0 mm
03:37 AM 58.6°F14.8°C 49.6°F9.8°C 72% 4.5 mph NW7.2 kmh NW 8.3 mph13.4 kmh 29.13 in986.5 mb 0.00 in0.0 mm 0.00 in0.0 mm 0.00 in0.0 mm
03:41 AM 58.6°F14.8°C 50.0°F10.0°C 73% 3.1 mph NW5.0 kmh NW 6.0 mph9.7 kmh 29.13 in986.5 mb 0.00 in0.0 mm 0.00 in0.0 mm 0.00 in0.0 mm
03:47 AM 58.3°F14.6°C 50.0°F10.0°C 74% 5.4 mph SW8.7 kmh SW 8.3 mph13.4 kmh 29.13 in986.5 mb 0.00 in0.0 mm 0.00 in0.0 mm 0.00 in0.0 mm
03:52 AM 58.3°F14.6°C 50.4°F10.2°C 75% 5.4 mph WSW8.7 kmh WSW 13.0 mph20.9 kmh 29.12 in986.1 mb 0.00 in0.0 mm 0.00 in0.0 mm 0.00 in0.0 mm
03:57 AM 58.3°F14.6°C 50.7°F10.4°C 76% 7.6 mph W12.2 kmh W 12.1 mph19.5 kmh 29.12 in986.1 mb 0.00 in0.0 mm 0.00 in0.0 mm 0.00 in0.0 mm
04:01 AM 58.3°F14.6°C 51.1°F10.6°C 77% 6.9 mph W11.1 kmh W 11.4 mph18.3 kmh 29.12 in986.1 mb 0.00 in0.0 mm 0.00 in0.0 mm 0.00 in0.0 mm
04:07 AM 58.3°F14.6°C 50.7°F10.4°C 76% 5.4 mph W8.7 kmh W 13.0 mph20.9 kmh 29.13 in986.5 mb 0.00 in0.0 mm 0.00 in0.0 mm 0.00 in0.0 mm
04:12 AM 58.5°F14.7°C 50.9°F10.5°C 76% 3.8 mph SW6.1 kmh SW 8.3 mph13.4 kmh 29.12 in986.1 mb 0.00 in0.0 mm 0.00 in0.0 mm 0.00 in0.0 mm
04:17 AM 58.5°F14.7°C 50.9°F10.5°C 76% 3.8 mph SW6.1 kmh SW 8.3 mph13.4 kmh 29.12 in986.1 mb 0.00 in0.0 mm 0.00 in0.0 mm 0.00 in0.0 mm
04:21 AM 58.5°F14.7°C 50.9°F10.5°C 76% 4.5 mph W7.2 kmh W 7.6 mph12.2 kmh 29.12 in986.1 mb 0.00 in0.0 mm 0.00 in0.0 mm 0.00 in0.0 mm
04:27 AM 58.5°F14.7°C 50.9°F10.5°C 76% 4.5 mph S7.2 kmh S 7.6 mph12.2 kmh 29.12 in986.1 mb 0.00 in0.0 mm 0.00 in0.0 mm 0.00 in0.0 mm
04:32 AM 58.6°F14.8°C 51.4°F10.8°C 77% 4.5 mph W7.2 kmh W 6.9 mph11.1 kmh 29.12 in986.1 mb 0.00 in0.0 mm 0.00 in0.0 mm 0.00 in0.0 mm
04:37 AM 58.8°F14.9°C 51.6°F10.9°C 77% 6.9 mph WSW11.1 kmh WSW 9.8 mph15.8 kmh 29.12 in986.1 mb 0.00 in0.0 mm 0.00 in0.0 mm 0.00 in0.0 mm
04:41 AM 59.0°F15.0°C 51.8°F11.0°C 77% 6.0 mph SW9.7 kmh SW 9.2 mph14.8 kmh 29.12 in986.1 mb 0.00 in0.0 mm 0.00 in0.0 mm 0.00 in0.0 mm
04:47 AM 59.4°F15.2°C 52.1°F11.2°C 77% 9.2 mph SW14.8 kmh SW 15.2 mph24.5 kmh 29.12 in986.1 mb 0.00 in0.0 mm 0.00 in0.0 mm 0.00 in0.0 mm
04:52 AM 59.5°F15.3°C 52.3°F11.3°C 77% 10.7 mph SW17.2 kmh SW 15.2 mph24.5 kmh 29.12 in986.1 mb 0.00 in0.0 mm 0.00 in0.0 mm 0.00 in0.0 mm
04:57 AM 59.5°F15.3°C 52.3°F11.3°C 77% 6.0 mph SW9.7 kmh SW 9.2 mph14.8 kmh 29.12 in986.1 mb 0.00 in0.0 mm 0.00 in0.0 mm 0.00 in0.0 mm
05:01 AM 59.4°F15.2°C 52.5°F11.4°C 78% 7.6 mph SW12.2 kmh SW 11.4 mph18.3 kmh 29.12 in986.1 mb 0.00 in0.0 mm 0.00 in0.0 mm 0.00 in0.0 mm
05:07 AM 59.4°F15.2°C 52.8°F11.6°C 79% 8.3 mph W13.4 kmh W 12.1 mph19.5 kmh 29.12 in986.1 mb 0.00 in0.0 mm 0.00 in0.0 mm 0.00 in0.0 mm
05:12 AM 59.2°F15.1°C 52.7°F11.5°C 79% 6.0 mph NW9.7 kmh NW 11.4 mph18.3 kmh 29.11 in985.8 mb 0.00 in0.0 mm 0.00 in0.0 mm 0.00 in0.0 mm
05:17 AM 59.0°F15.0°C 52.8°F11.6°C 80% 4.5 mph WSW7.2 kmh WSW 6.9 mph11.1 kmh 29.11 in985.8 mb 0.00 in0.0 mm 0.00 in0.0 mm 0.00 in0.0 mm
05:21 AM 59.0°F15.0°C 52.8°F11.6°C 80% 6.9 mph NW11.1 kmh NW 9.8 mph15.8 kmh 29.11 in985.8 mb 0.00 in0.0 mm 0.00 in0.0 mm 0.00 in0.0 mm
05:27 AM 58.8°F14.9°C 52.7°F11.5°C 80% 3.8 mph W6.1 kmh W 12.1 mph19.5 kmh 29.10 in985.4 mb 0.00 in0.0 mm 0.00 in0.0 mm 0.00 in0.0 mm
05:32 AM 58.8°F14.9°C 52.7°F11.5°C 80% 6.0 mph W9.7 kmh W 13.0 mph20.9 kmh 29.10 in985.4 mb 0.00 in0.0 mm 0.00 in0.0 mm 0.00 in0.0 mm
05:37 AM 59.0°F15.0°C 52.8°F11.6°C 80% 6.0 mph WSW9.7 kmh WSW 9.8 mph15.8 kmh 29.09 in985.1 mb 0.00 in0.0 mm 0.00 in0.0 mm 0.00 in0.0 mm
05:41 AM 59.0°F15.0°C 52.8°F11.6°C 80% 4.5 mph S7.2 kmh S 11.4 mph18.3 kmh 29.10 in985.4 mb 0.00 in0.0 mm 0.00 in0.0 mm 0.00 in0.0 mm
05:47 AM 59.0°F15.0°C 52.8°F11.6°C 80% 8.3 mph NW13.4 kmh NW 13.6 mph21.9 kmh 29.09 in985.1 mb 0.00 in0.0 mm 0.00 in0.0 mm 0.00 in0.0 mm
05:52 AM 59.2°F15.1°C 52.7°F11.5°C 79% 5.4 mph SW8.7 kmh SW 12.1 mph19.5 kmh 29.09 in985.1 mb 0.00 in0.0 mm 0.00 in0.0 mm 0.00 in0.0 mm
05:57 AM 59.4°F15.2°C 52.5°F11.4°C 78% 8.3 mph SW13.4 kmh SW 11.4 mph18.3 kmh 29.08 in984.8 mb 0.00 in0.0 mm 0.00 in0.0 mm 0.00 in0.0 mm
06:01 AM 59.2°F15.1°C 52.3°F11.3°C 78% 6.0 mph SW9.7 kmh SW 8.3 mph13.4 kmh 29.09 in985.1 mb 0.00 in0.0 mm 0.00 in0.0 mm 0.00 in0.0 mm
06:07 AM 59.2°F15.1°C 52.7°F11.5°C 79% 5.4 mph SW8.7 kmh SW 12.1 mph19.5 kmh 29.08 in984.8 mb 0.00 in0.0 mm 0.00 in0.0 mm 0.00 in0.0 mm
06:12 AM 59.2°F15.1°C 52.7°F11.5°C 79% 6.0 mph WNW9.7 kmh WNW 10.7 mph17.2 kmh 29.08 in984.8 mb 0.00 in0.0 mm 0.00 in0.0 mm 0.00 in0.0 mm
06:17 AM 59.2°F15.1°C 52.7°F11.5°C 79% 6.0 mph WNW9.7 kmh WNW 10.7 mph17.2 kmh 29.09 in985.1 mb 0.00 in0.0 mm 0.00 in0.0 mm 0.00 in0.0 mm
06:21 AM 59.2°F15.1°C 52.7°F11.5°C 79% 6.9 mph SW11.1 kmh SW 11.4 mph18.3 kmh 29.08 in984.8 mb 0.00 in0.0 mm 0.00 in0.0 mm 0.00 in0.0 mm
06:27 AM 59.2°F15.1°C 53.0°F11.7°C 80% 6.0 mph SW9.7 kmh SW 10.7 mph17.2 kmh 29.09 in985.1 mb 0.00 in0.0 mm 0.00 in0.0 mm 0.00 in0.0 mm
06:32 AM 59.2°F15.1°C 52.7°F11.5°C 79% 5.4 mph SW8.7 kmh SW 9.8 mph15.8 kmh 29.08 in984.8 mb 0.00 in0.0 mm 0.00 in0.0 mm 0.00 in0.0 mm
06:37 AM 59.2°F15.1°C 52.7°F11.5°C 79% 4.5 mph SW7.2 kmh SW 6.0 mph9.7 kmh 29.08 in984.8 mb 0.00 in0.0 mm 0.00 in0.0 mm 0.00 in0.0 mm
06:41 AM 59.2°F15.1°C 52.7°F11.5°C 79% 5.4 mph WSW8.7 kmh WSW 7.6 mph12.2 kmh 29.08 in984.8 mb 0.00 in0.0 mm 0.00 in0.0 mm 0.00 in0.0 mm
06:47 AM 59.2°F15.1°C 52.7°F11.5°C 79% 6.0 mph W9.7 kmh W 9.2 mph14.8 kmh 29.07 in984.4 mb 0.00 in0.0 mm 0.00 in0.0 mm 0.00 in0.0 mm
06:52 AM 59.2°F15.1°C 52.7°F11.5°C 79% 5.4 mph SW8.7 kmh SW 8.3 mph13.4 kmh 29.08 in984.8 mb 0.00 in0.0 mm 0.00 in0.0 mm 0.00 in0.0 mm
06:57 AM 59.2°F15.1°C 52.7°F11.5°C 79% 3.8 mph WSW6.1 kmh WSW 7.6 mph12.2 kmh 29.08 in984.8 mb 0.00 in0.0 mm 0.00 in0.0 mm 0.00 in0.0 mm
07:01 AM 59.0°F15.0°C 52.5°F11.4°C 79% 4.5 mph 7.2 kmh 11.4 mph18.3 kmh 29.08 in984.8 mb 0.00 in0.0 mm 0.00 in0.0 mm 0.00 in0.0 mm
07:07 AM 59.0°F15.0°C 52.8°F11.6°C 80% 4.5 mph NW7.2 kmh NW 8.3 mph13.4 kmh 29.08 in984.8 mb 0.00 in0.0 mm 0.00 in0.0 mm 0.00 in0.0 mm
07:12 AM 59.0°F15.0°C 52.8°F11.6°C 80% 2.2 mph SW3.5 kmh SW 3.8 mph6.1 kmh 29.08 in984.8 mb 0.00 in0.0 mm 0.00 in0.0 mm 0.00 in0.0 mm
07:17 AM 59.0°F15.0°C 52.8°F11.6°C 80% 2.2 mph SW3.5 kmh SW 3.8 mph6.1 kmh 29.08 in984.8 mb 0.00 in0.0 mm 0.00 in0.0 mm 0.00 in0.0 mm
07:21 AM 58.8°F14.9°C 53.3°F11.8°C 82% 3.1 mph SW5.0 kmh SW 4.5 mph7.2 kmh 29.08 in984.8 mb 0.00 in0.0 mm 0.00 in0.0 mm 0.00 in0.0 mm
07:27 AM 58.5°F14.7°C 53.3°F11.8°C 83% 2.2 mph SW3.5 kmh SW 4.5 mph7.2 kmh 29.09 in985.1 mb 0.00 in0.0 mm 0.00 in0.0 mm 0.00 in0.0 mm
07:32 AM 58.5°F14.7°C 53.3°F11.8°C 83% 3.8 mph SW6.1 kmh SW 6.0 mph9.7 kmh 29.09 in985.1 mb 0.00 in0.0 mm 0.00 in0.0 mm 0.00 in0.0 mm
07:37 AM 58.3°F14.6°C 53.5°F11.9°C 84% 2.2 mph WSW3.5 kmh WSW 5.4 mph8.7 kmh 29.09 in985.1 mb 0.00 in0.0 mm 0.00 in0.0 mm 0.00 in0.0 mm
07:41 AM 58.5°F14.7°C 54.0°F12.2°C 85% 2.2 mph SW3.5 kmh SW 3.8 mph6.1 kmh 29.09 in985.1 mb 0.00 in0.0 mm 0.00 in0.0 mm 0.00 in0.0 mm
07:47 AM 58.3°F14.6°C 53.8°F12.1°C 85% Calm Calm -- 29.09 in985.1 mb 0.00 in0.0 mm 0.00 in0.0 mm 0.00 in0.0 mm
07:52 AM 58.1°F14.5°C 53.9°F12.2°C 86% 3.1 mph W5.0 kmh W 6.0 mph9.7 kmh 29.09 in985.1 mb 0.00 in0.0 mm 0.00 in0.0 mm 0.00 in0.0 mm
07:57 AM 58.1°F14.5°C 53.9°F12.2°C 86% 2.2 mph SW3.5 kmh SW 6.0 mph9.7 kmh 29.09 in985.1 mb 0.00 in0.0 mm 0.00 in0.0 mm 0.00 in0.0 mm
08:01 AM 57.9°F14.4°C 53.8°F12.1°C 86% 3.1 mph WSW5.0 kmh WSW 5.4 mph8.7 kmh 29.10 in985.4 mb 0.00 in0.0 mm 0.00 in0.0 mm 0.00 in0.0 mm
08:07 AM 57.9°F14.4°C 53.4°F11.9°C 85% 3.1 mph W5.0 kmh W 5.4 mph8.7 kmh 29.10 in985.4 mb 0.00 in0.0 mm 0.00 in0.0 mm 0.00 in0.0 mm
08:12 AM 57.9°F14.4°C 52.8°F11.6°C 83% 1.6 mph WNW2.6 kmh WNW 3.8 mph6.1 kmh 29.10 in985.4 mb 0.00 in0.0 mm 0.00 in0.0 mm 0.00 in0.0 mm
08:17 AM 57.9°F14.4°C 52.8°F11.6°C 83% 1.6 mph WNW2.6 kmh WNW 3.8 mph6.1 kmh 29.11 in985.8 mb 0.00 in0.0 mm 0.00 in0.0 mm 0.00 in0.0 mm
08:21 AM 58.1°F14.5°C 50.6°F10.3°C 76% 5.4 mph 8.7 kmh 9.2 mph14.8 kmh 29.11 in985.8 mb 0.00 in0.0 mm 0.00 in0.0 mm 0.00 in0.0 mm
08:27 AM 58.1°F14.5°C 50.6°F10.3°C 76% 2.2 mph NW3.5 kmh NW 5.4 mph8.7 kmh 29.11 in985.8 mb 0.00 in0.0 mm 0.00 in0.0 mm 0.00 in0.0 mm
08:32 AM 57.7°F14.3°C 48.8°F9.3°C 72% 4.5 mph WNW7.2 kmh WNW 10.7 mph17.2 kmh 29.10 in985.4 mb 0.00 in0.0 mm 0.00 in0.0 mm 0.00 in0.0 mm
08:37 AM 57.7°F14.3°C 48.0°F8.9°C 70% 5.4 mph NE8.7 kmh NE 9.8 mph15.8 kmh 29.11 in985.8 mb 0.00 in0.0 mm 0.00 in0.0 mm 0.00 in0.0 mm
08:41 AM 57.6°F14.2°C 47.5°F8.6°C 69% 6.0 mph 9.7 kmh 9.2 mph14.8 kmh 29.12 in986.1 mb 0.00 in0.0 mm 0.00 in0.0 mm 0.00 in0.0 mm
08:47 AM 57.6°F14.2°C 46.7°F8.2°C 67% 6.0 mph NW9.7 kmh NW 9.8 mph15.8 kmh 29.12 in986.1 mb 0.00 in0.0 mm 0.00 in0.0 mm 0.00 in0.0 mm
08:52 AM 57.6°F14.2°C 46.7°F8.2°C 67% 3.1 mph NW5.0 kmh NW 4.5 mph7.2 kmh 29.11 in985.8 mb 0.00 in0.0 mm 0.00 in0.0 mm 0.00 in0.0 mm
08:57 AM 57.4°F14.1°C 46.1°F7.8°C 66% 3.8 mph NNW6.1 kmh NNW 6.9 mph11.1 kmh 29.12 in986.1 mb 0.00 in0.0 mm 0.00 in0.0 mm 0.00 in0.0 mm
09:01 AM 57.4°F14.1°C 46.1°F7.8°C 66% 1.6 mph SW2.6 kmh SW 4.5 mph7.2 kmh 29.12 in986.1 mb 0.00 in0.0 mm 0.00 in0.0 mm 0.00 in0.0 mm
09:07 AM 57.4°F14.1°C 45.7°F7.6°C 65% 3.8 mph NW6.1 kmh NW 6.9 mph11.1 kmh 29.12 in986.1 mb 0.00 in0.0 mm 0.00 in0.0 mm 0.00 in0.0 mm
09:12 AM 57.4°F14.1°C 45.7°F7.6°C 65% 3.1 mph NW5.0 kmh NW 9.2 mph14.8 kmh 29.12 in986.1 mb 0.00 in0.0 mm 0.00 in0.0 mm 0.00 in0.0 mm
09:17 AM 56.7°F13.7°C 46.2°F7.9°C 68% 0.7 mph 1.1 kmh 3.8 mph6.1 kmh 29.12 in986.1 mb 0.00 in0.0 mm 0.00 in0.0 mm 0.00 in0.0 mm
09:21 AM 56.3°F13.5°C 46.6°F8.1°C 70% 1.6 mph NW2.6 kmh NW 3.8 mph6.1 kmh 29.12 in986.1 mb 0.00 in0.0 mm 0.00 in0.0 mm 0.00 in0.0 mm
09:27 AM 56.1°F13.4°C 47.2°F8.4°C 72% 0.7 mph 1.1 kmh 3.8 mph6.1 kmh 29.12 in986.1 mb 0.00 in0.0 mm 0.00 in0.0 mm 0.00 in0.0 mm
09:32 AM 56.1°F13.4°C 47.6°F8.7°C 73% Calm Calm -- 29.12 in986.1 mb 0.00 in0.0 mm 0.00 in0.0 mm 0.00 in0.0 mm
09:37 AM 56.1°F13.4°C 47.6°F8.7°C 73% 1.6 mph NW2.6 kmh NW 3.8 mph6.1 kmh 29.12 in986.1 mb 0.00 in0.0 mm 0.00 in0.0 mm 0.00 in0.0 mm
09:41 AM 56.5°F13.6°C 47.9°F8.8°C 73% Calm Calm 2.2 mph3.5 kmh 29.13 in986.5 mb 0.00 in0.0 mm 0.00 in0.0 mm 0.00 in0.0 mm
09:47 AM 56.7°F13.7°C 47.7°F8.7°C 72% Calm Calm -- 29.13 in986.5 mb 0.00 in0.0 mm 0.00 in0.0 mm 0.00 in0.0 mm
09:52 AM 56.7°F13.7°C 47.7°F8.7°C 72% Calm Calm -- 29.12 in986.1 mb 0.00 in0.0 mm 0.00 in0.0 mm 0.00 in0.0 mm
09:57 AM 57.0°F13.9°C 48.1°F8.9°C 72% Calm Calm -- 29.12 in986.1 mb 0.00 in0.0 mm 0.00 in0.0 mm 0.00 in0.0 mm
10:01 AM 57.6°F14.2°C 48.2°F9.0°C 71% Calm Calm -- 29.12 in986.1 mb 0.00 in0.0 mm 0.00 in0.0 mm 0.00 in0.0 mm
10:07 AM 57.9°F14.4°C 48.2°F9.0°C 70% Calm Calm 2.2 mph3.5 kmh 29.12 in986.1 mb 0.00 in0.0 mm 0.00 in0.0 mm 0.00 in0.0 mm
10:12 AM 58.6°F14.8°C 48.9°F9.4°C 70% Calm Calm -- 29.12 in986.1 mb 0.00 in0.0 mm 0.00 in0.0 mm 0.00 in0.0 mm
10:17 AM 59.4°F15.2°C 48.8°F9.3°C 68% 0.7 mph SW1.1 kmh SW 3.1 mph5.0 kmh 29.12 in986.1 mb 0.00 in0.0 mm 0.00 in0.0 mm 0.00 in0.0 mm
10:21 AM 59.7°F15.4°C 47.9°F8.8°C 65% Calm Calm -- 29.12 in986.1 mb 0.00 in0.0 mm 0.00 in0.0 mm 0.00 in0.0 mm
10:27 AM 59.5°F15.3°C 47.3°F8.5°C 64% Calm Calm 2.2 mph3.5 kmh 29.12 in986.1 mb 0.00 in0.0 mm 0.00 in0.0 mm 0.00 in0.0 mm
10:32 AM 59.7°F15.4°C 47.5°F8.6°C 64% Calm Calm 1.6 mph2.6 kmh 29.13 in986.5 mb 0.00 in0.0 mm 0.00 in0.0 mm 0.00 in0.0 mm
10:37 AM 59.7°F15.4°C 47.5°F8.6°C 64% 0.7 mph SW1.1 kmh SW 2.2 mph3.5 kmh 29.13 in986.5 mb 0.00 in0.0 mm 0.00 in0.0 mm 0.00 in0.0 mm
10:41 AM 60.4°F15.8°C 48.2°F9.0°C 64% Calm Calm 2.2 mph3.5 kmh 29.13 in986.5 mb 0.00 in0.0 mm 0.00 in0.0 mm 0.00 in0.0 mm
10:47 AM 61.7°F16.5°C 48.5°F9.2°C 62% Calm Calm 0.7 mph1.1 kmh 29.13 in986.5 mb 0.00 in0.0 mm 0.00 in0.0 mm 0.00 in0.0 mm
10:52 AM 61.0°F16.1°C 46.5°F8.1°C 59% Calm Calm 2.2 mph3.5 kmh 29.13 in986.5 mb 0.00 in0.0 mm 0.00 in0.0 mm 0.00 in0.0 mm
10:57 AM 60.8°F16.0°C 47.3°F8.5°C 61% 0.7 mph SSW1.1 kmh SSW 3.1 mph5.0 kmh 29.13 in986.5 mb 0.00 in0.0 mm 0.00 in0.0 mm 0.00 in0.0 mm
11:01 AM 60.6°F15.9°C 47.5°F8.6°C 62% 0.7 mph SE1.1 kmh SE 3.1 mph5.0 kmh 29.12 in986.1 mb 0.00 in0.0 mm 0.00 in0.0 mm 0.00 in0.0 mm
11:07 AM 60.6°F15.9°C 48.0°F8.9°C 63% 4.5 mph S7.2 kmh S 8.3 mph13.4 kmh 29.12 in986.1 mb 0.01 in0.3 mm 0.10 in2.5 mm 0.01 in0.3 mm
11:12 AM 60.4°F15.8°C 47.4°F8.6°C 62% 2.2 mph SW3.5 kmh SW 4.5 mph7.2 kmh 29.11 in985.8 mb 0.01 in0.3 mm 0.00 in0.0 mm 0.01 in0.3 mm
11:17 AM 61.7°F16.5°C 48.1°F8.9°C 61% 2.2 mph SW3.5 kmh SW 7.6 mph12.2 kmh 29.11 in985.8 mb 0.01 in0.3 mm 0.00 in0.0 mm 0.01 in0.3 mm
11:21 AM 61.7°F16.5°C 47.7°F8.7°C 60% 2.2 mph SW3.5 kmh SW 5.4 mph8.7 kmh 29.10 in985.4 mb 0.01 in0.3 mm 0.00 in0.0 mm 0.01 in0.3 mm
11:27 AM 60.4°F15.8°C 47.4°F8.6°C 62% 3.1 mph WSW5.0 kmh WSW 4.5 mph7.2 kmh 29.10 in985.4 mb 0.01 in0.3 mm 0.00 in0.0 mm 0.01 in0.3 mm
11:32 AM 59.5°F15.3°C 46.9°F8.3°C 63% 3.1 mph S5.0 kmh S 6.0 mph9.7 kmh 29.10 in985.4 mb 0.01 in0.3 mm 0.00 in0.0 mm 0.01 in0.3 mm
11:37 AM 59.2°F15.1°C 47.4°F8.6°C 65% 1.6 mph W2.6 kmh W 3.8 mph6.1 kmh 29.10 in985.4 mb 0.01 in0.3 mm 0.00 in0.0 mm 0.01 in0.3 mm
11:41 AM 59.0°F15.0°C 48.1°F8.9°C 67% 2.2 mph S3.5 kmh S 6.0 mph9.7 kmh 29.10 in985.4 mb 0.01 in0.3 mm 0.00 in0.0 mm 0.01 in0.3 mm
11:47 AM 59.2°F15.1°C 48.2°F9.0°C 67% 2.2 mph WSW3.5 kmh WSW 5.4 mph8.7 kmh 29.09 in985.1 mb 0.01 in0.3 mm 0.00 in0.0 mm 0.01 in0.3 mm
11:52 AM 59.2°F15.1°C 48.2°F9.0°C 67% 3.8 mph SW6.1 kmh SW 6.9 mph11.1 kmh 29.10 in985.4 mb 0.01 in0.3 mm 0.00 in0.0 mm 0.01 in0.3 mm
11:57 AM 59.0°F15.0°C 48.1°F8.9°C 67% 4.5 mph SW7.2 kmh SW 6.0 mph9.7 kmh 29.09 in985.1 mb 0.01 in0.3 mm 0.00 in0.0 mm 0.01 in0.3 mm
12:01 PM 59.2°F15.1°C 48.6°F9.2°C 68% 2.2 mph SW3.5 kmh SW 4.5 mph7.2 kmh 29.10 in985.4 mb 0.01 in0.3 mm 0.00 in0.0 mm 0.01 in0.3 mm
12:07 PM 59.5°F15.3°C 49.0°F9.4°C 68% 6.0 mph SW9.7 kmh SW 9.2 mph14.8 kmh 29.10 in985.4 mb 0.00 in0.0 mm 0.00 in0.0 mm 0.01 in0.3 mm
12:12 PM 59.2°F15.1°C 48.6°F9.2°C 68% 6.0 mph SW9.7 kmh SW 9.8 mph15.8 kmh 29.10 in985.4 mb 0.00 in0.0 mm 0.00 in0.0 mm 0.01 in0.3 mm
12:17 PM 59.4°F15.2°C 48.4°F9.1°C 67% 3.1 mph SW5.0 kmh SW 6.0 mph9.7 kmh 29.09 in985.1 mb 0.00 in0.0 mm 0.00 in0.0 mm 0.01 in0.3 mm
12:21 PM 60.1°F15.6°C 48.3°F9.1°C 65% 3.8 mph SSW6.1 kmh SSW 6.0 mph9.7 kmh 29.09 in985.1 mb 0.00 in0.0 mm 0.00 in0.0 mm 0.01 in0.3 mm
12:27 PM 61.9°F16.6°C 48.3°F9.1°C 61% 2.2 mph SW3.5 kmh SW 6.0 mph9.7 kmh 29.09 in985.1 mb 0.00 in0.0 mm 0.00 in0.0 mm 0.01 in0.3 mm
12:32 PM 62.8°F17.1°C 47.3°F8.5°C 57% 3.8 mph SW6.1 kmh SW 9.2 mph14.8 kmh 29.08 in984.8 mb 0.00 in0.0 mm 0.00 in0.0 mm 0.01 in0.3 mm
12:37 PM 62.8°F17.1°C 47.3°F8.5°C 57% 2.2 mph W3.5 kmh W 5.4 mph8.7 kmh 29.08 in984.8 mb 0.00 in0.0 mm 0.00 in0.0 mm 0.01 in0.3 mm
12:41 PM 62.2°F16.8°C 46.8°F8.2°C 57% 3.1 mph SSW5.0 kmh SSW 7.6 mph12.2 kmh 29.08 in984.8 mb 0.00 in0.0 mm 0.00 in0.0 mm 0.01 in0.3 mm
12:47 PM 61.0°F16.1°C 47.4°F8.6°C 61% 3.8 mph S6.1 kmh S 6.0 mph9.7 kmh 29.08 in984.8 mb 0.00 in0.0 mm 0.00 in0.0 mm 0.01 in0.3 mm
12:52 PM 61.3°F16.3°C 48.2°F9.0°C 62% 3.1 mph S5.0 kmh S 4.5 mph7.2 kmh 29.07 in984.4 mb 0.00 in0.0 mm 0.00 in0.0 mm 0.01 in0.3 mm
12:57 PM 61.7°F16.5°C 48.1°F8.9°C 61% 3.1 mph SW5.0 kmh SW 5.4 mph8.7 kmh 29.08 in984.8 mb 0.00 in0.0 mm 0.00 in0.0 mm 0.01 in0.3 mm
01:01 PM 61.5°F16.4°C 47.5°F8.6°C 60% 2.2 mph SE3.5 kmh SE 4.5 mph7.2 kmh 29.07 in984.4 mb 0.00 in0.0 mm 0.00 in0.0 mm 0.01 in0.3 mm
01:07 PM 62.4°F16.9°C 47.0°F8.3°C 57% 3.1 mph SW5.0 kmh SW 5.4 mph8.7 kmh 29.07 in984.4 mb 0.00 in0.0 mm 0.00 in0.0 mm 0.01 in0.3 mm
01:12 PM 62.1°F16.7°C 45.7°F7.6°C 55% 4.5 mph NW7.2 kmh NW 9.8 mph15.8 kmh 29.07 in984.4 mb 0.00 in0.0 mm 0.00 in0.0 mm 0.01 in0.3 mm
01:17 PM 62.2°F16.8°C 44.9°F7.2°C 53% 5.4 mph SW8.7 kmh SW 9.2 mph14.8 kmh 29.07 in984.4 mb 0.00 in0.0 mm 0.00 in0.0 mm 0.01 in0.3 mm
01:21 PM 62.2°F16.8°C 44.4°F6.9°C 52% 4.5 mph SSW7.2 kmh SSW 9.8 mph15.8 kmh 29.07 in984.4 mb 0.00 in0.0 mm 0.00 in0.0 mm 0.01 in0.3 mm
01:27 PM 62.1°F16.7°C 44.2°F6.8°C 52% 5.4 mph SW8.7 kmh SW 7.6 mph12.2 kmh 29.07 in984.4 mb 0.00 in0.0 mm 0.00 in0.0 mm 0.01 in0.3 mm
01:32 PM 61.9°F16.6°C 43.6°F6.4°C 51% 6.0 mph WSW9.7 kmh WSW 12.1 mph19.5 kmh 29.07 in984.4 mb 0.00 in0.0 mm 0.00 in0.0 mm 0.01 in0.3 mm
01:37 PM 61.3°F16.3°C 45.5°F7.5°C 56% 7.6 mph SW12.2 kmh SW 13.6 mph21.9 kmh 29.07 in984.4 mb 0.00 in0.0 mm 0.00 in0.0 mm 0.01 in0.3 mm
01:41 PM 60.3°F15.7°C 46.3°F7.9°C 60% 6.9 mph S11.1 kmh S 12.1 mph19.5 kmh 29.08 in984.8 mb 0.00 in0.0 mm 0.00 in0.0 mm 0.01 in0.3 mm
01:47 PM 59.5°F15.3°C 47.3°F8.5°C 64% 5.4 mph SW8.7 kmh SW 7.6 mph12.2 kmh 29.08 in984.8 mb 0.00 in0.0 mm 0.00 in0.0 mm 0.01 in0.3 mm
01:52 PM 59.2°F15.1°C 48.2°F9.0°C 67% 5.4 mph SW8.7 kmh SW 9.2 mph14.8 kmh 29.08 in984.8 mb 0.00 in0.0 mm 0.00 in0.0 mm 0.01 in0.3 mm
01:57 PM 59.0°F15.0°C 48.8°F9.3°C 69% 1.6 mph SSW2.6 kmh SSW 3.8 mph6.1 kmh 29.08 in984.8 mb 0.00 in0.0 mm 0.00 in0.0 mm 0.01 in0.3 mm
02:01 PM 58.8°F14.9°C 48.3°F9.1°C 68% 2.2 mph SW3.5 kmh SW 6.9 mph11.1 kmh 29.08 in984.8 mb 0.00 in0.0 mm 0.00 in0.0 mm 0.01 in0.3 mm
02:07 PM 58.8°F14.9°C 47.1°F8.4°C 65% 4.5 mph W7.2 kmh W 8.3 mph13.4 kmh 29.08 in984.8 mb 0.00 in0.0 mm 0.00 in0.0 mm 0.01 in0.3 mm
02:12 PM 59.0°F15.0°C 46.4°F8.0°C 63% 2.2 mph SW3.5 kmh SW 5.4 mph8.7 kmh 29.08 in984.8 mb 0.00 in0.0 mm 0.00 in0.0 mm 0.01 in0.3 mm
02:17 PM 59.4°F15.2°C 45.9°F7.7°C 61% 3.8 mph NW6.1 kmh NW 6.0 mph9.7 kmh 29.08 in984.8 mb 0.00 in0.0 mm 0.00 in0.0 mm 0.01 in0.3 mm
02:21 PM 59.5°F15.3°C 45.2°F7.3°C 59% 2.2 mph SW3.5 kmh SW 4.5 mph7.2 kmh 29.07 in984.4 mb 0.00 in0.0 mm 0.00 in0.0 mm 0.01 in0.3 mm
02:27 PM 59.7°F15.4°C 43.5°F6.4°C 55% 1.6 mph WNW2.6 kmh WNW 3.8 mph6.1 kmh 29.07 in984.4 mb 0.00 in0.0 mm 0.00 in0.0 mm 0.01 in0.3 mm
02:32 PM 59.9°F15.5°C 42.7°F5.9°C 53% Calm Calm -- 29.07 in984.4 mb 0.00 in0.0 mm 0.00 in0.0 mm 0.01 in0.3 mm
02:37 PM 60.3°F15.7°C 38.3°F3.5°C 44% 3.1 mph 5.0 kmh 4.5 mph7.2 kmh 29.07 in984.4 mb 0.00 in0.0 mm 0.00 in0.0 mm 0.01 in0.3 mm
02:41 PM 60.3°F15.7°C 36.5°F2.5°C 41% 2.2 mph W3.5 kmh W 4.5 mph7.2 kmh 29.07 in984.4 mb 0.00 in0.0 mm 0.00 in0.0 mm 0.01 in0.3 mm
02:47 PM 61.0°F16.1°C 37.1°F2.8°C 41% 1.6 mph SW2.6 kmh SW 3.1 mph5.0 kmh 29.07 in984.4 mb 0.00 in0.0 mm 0.00 in0.0 mm 0.01 in0.3 mm
02:52 PM 63.1°F17.3°C 40.3°F4.6°C 43% 2.2 mph SW3.5 kmh SW 4.5 mph7.2 kmh 29.07 in984.4 mb 0.00 in0.0 mm 0.00 in0.0 mm 0.01 in0.3 mm
02:57 PM 63.3°F17.4°C 39.8°F4.3°C 42% 2.2 mph SW3.5 kmh SW 3.8 mph6.1 kmh 29.07 in984.4 mb 0.00 in0.0 mm 0.00 in0.0 mm 0.01 in0.3 mm
03:01 PM 62.2°F16.8°C 40.1°F4.5°C 44% 3.8 mph S6.1 kmh S 6.9 mph11.1 kmh 29.07 in984.4 mb 0.00 in0.0 mm 0.00 in0.0 mm 0.01 in0.3 mm
03:07 PM 61.0°F16.1°C 41.1°F5.1°C 48% 3.8 mph W6.1 kmh W 6.9 mph11.1 kmh 29.07 in984.4 mb 0.00 in0.0 mm 0.00 in0.0 mm 0.01 in0.3 mm
03:12 PM 60.6°F15.9°C 41.9°F5.5°C 50% 3.1 mph S5.0 kmh S 4.5 mph7.2 kmh 29.07 in984.4 mb 0.00 in0.0 mm 0.00 in0.0 mm 0.01 in0.3 mm
03:17 PM 60.6°F15.9°C 42.9°F6.1°C 52% 6.0 mph SW9.7 kmh SW 12.1 mph19.5 kmh 29.07 in984.4 mb 0.00 in0.0 mm 0.00 in0.0 mm 0.01 in0.3 mm
03:21 PM 61.5°F16.4°C 42.7°F5.9°C 50% 3.8 mph NW6.1 kmh NW 7.6 mph12.2 kmh 29.07 in984.4 mb 0.00 in0.0 mm 0.00 in0.0 mm 0.01 in0.3 mm
03:27 PM 62.8°F17.1°C 43.3°F6.3°C 49% 3.1 mph S5.0 kmh S 5.4 mph8.7 kmh 29.07 in984.4 mb 0.00 in0.0 mm 0.00 in0.0 mm 0.01 in0.3 mm
03:32 PM 63.3°F17.4°C 44.4°F6.9°C 50% 2.2 mph SW3.5 kmh SW 4.5 mph7.2 kmh 29.07 in984.4 mb 0.00 in0.0 mm 0.00 in0.0 mm 0.01 in0.3 mm
03:37 PM 63.0°F17.2°C 43.0°F6.1°C 48% 3.1 mph WSW5.0 kmh WSW 6.9 mph11.1 kmh 29.07 in984.4 mb 0.00 in0.0 mm 0.00 in0.0 mm 0.01 in0.3 mm
03:41 PM 63.1°F17.3°C 42.0°F5.6°C 46% 5.4 mph SW8.7 kmh SW 8.3 mph13.4 kmh 29.07 in984.4 mb 0.00 in0.0 mm 0.00 in0.0 mm 0.01 in0.3 mm
03:47 PM 62.6°F17.0°C 42.1°F5.6°C 47% 5.4 mph S8.7 kmh S 9.2 mph14.8 kmh 29.07 in984.4 mb 0.00 in0.0 mm 0.00 in0.0 mm 0.01 in0.3 mm
03:52 PM 63.3°F17.4°C 43.3°F6.3°C 48% 1.6 mph S2.6 kmh S 3.8 mph6.1 kmh 29.07 in984.4 mb 0.00 in0.0 mm 0.00 in0.0 mm 0.01 in0.3 mm
03:57 PM 62.4°F16.9°C 42.5°F5.8°C 48% 5.4 mph SW8.7 kmh SW 11.4 mph18.3 kmh 29.07 in984.4 mb 0.00 in0.0 mm 0.00 in0.0 mm 0.01 in0.3 mm
04:01 PM 61.9°F16.6°C 42.5°F5.8°C 49% 4.5 mph W7.2 kmh W 7.6 mph12.2 kmh 29.07 in984.4 mb 0.00 in0.0 mm 0.00 in0.0 mm 0.01 in0.3 mm
04:07 PM 61.5°F16.4°C 42.7°F5.9°C 50% 2.2 mph SSW3.5 kmh SSW 6.0 mph9.7 kmh 29.07 in984.4 mb 0.00 in0.0 mm 0.00 in0.0 mm 0.01 in0.3 mm
04:12 PM 61.0°F16.1°C 42.7°F5.9°C 51% 5.4 mph SW8.7 kmh SW 7.6 mph12.2 kmh 29.07 in984.4 mb 0.00 in0.0 mm 0.00 in0.0 mm 0.01 in0.3 mm
04:17 PM 61.0°F16.1°C 42.7°F5.9°C 51% 5.4 mph SW8.7 kmh SW 7.6 mph12.2 kmh 29.07 in984.4 mb 0.00 in0.0 mm 0.00 in0.0 mm 0.01 in0.3 mm
04:21 PM 61.7°F16.5°C 42.3°F5.7°C 49% 4.5 mph W7.2 kmh W 7.6 mph12.2 kmh 29.07 in984.4 mb 0.00 in0.0 mm 0.00 in0.0 mm 0.01 in0.3 mm
04:27 PM 62.1°F16.7°C 42.1°F5.6°C 48% 1.6 mph W2.6 kmh W 4.5 mph7.2 kmh 29.07 in984.4 mb 0.00 in0.0 mm 0.00 in0.0 mm 0.01 in0.3 mm
04:32 PM 62.2°F16.8°C 41.2°F5.1°C 46% 0.7 mph SW1.1 kmh SW 2.2 mph3.5 kmh 29.07 in984.4 mb 0.00 in0.0 mm 0.00 in0.0 mm 0.01 in0.3 mm
04:37 PM 62.8°F17.1°C 42.2°F5.7°C 47% 0.7 mph 1.1 kmh 4.5 mph7.2 kmh 29.06 in984.1 mb 0.00 in0.0 mm 0.00 in0.0 mm 0.01 in0.3 mm
04:41 PM 63.3°F17.4°C 41.6°F5.3°C 45% 1.6 mph SW2.6 kmh SW 4.5 mph7.2 kmh 29.06 in984.1 mb 0.00 in0.0 mm 0.00 in0.0 mm 0.01 in0.3 mm
04:47 PM 62.8°F17.1°C 41.1°F5.1°C 45% Calm Calm -- 29.07 in984.4 mb 0.00 in0.0 mm 0.00 in0.0 mm 0.01 in0.3 mm
04:52 PM 61.5°F16.4°C 41.1°F5.1°C 47% Calm Calm -- 29.07 in984.4 mb 0.00 in0.0 mm 0.00 in0.0 mm 0.01 in0.3 mm
04:57 PM 61.3°F16.3°C 41.5°F5.3°C 48% Calm Calm -- 29.07 in984.4 mb 0.00 in0.0 mm 0.00 in0.0 mm 0.01 in0.3 mm
05:01 PM 61.5°F16.4°C 42.2°F5.7°C 49% Calm Calm 1.6 mph2.6 kmh 29.06 in984.1 mb 0.00 in0.0 mm 0.00 in0.0 mm 0.01 in0.3 mm
05:07 PM 60.6°F15.9°C 43.4°F6.3°C 53% Calm Calm 2.2 mph3.5 kmh 29.06 in984.1 mb 0.00 in0.0 mm 0.00 in0.0 mm 0.01 in0.3 mm
05:12 PM 60.3°F15.7°C 43.1°F6.2°C 53% Calm Calm -- 29.06 in984.1 mb 0.00 in0.0 mm 0.00 in0.0 mm 0.01 in0.3 mm
05:17 PM 59.0°F15.0°C 43.8°F6.6°C 57% 0.7 mph SSW1.1 kmh SSW 3.1 mph5.0 kmh 29.07 in984.4 mb 0.00 in0.0 mm 0.00 in0.0 mm 0.01 in0.3 mm
05:21 PM 58.3°F14.6°C 44.0°F6.7°C 59% Calm Calm 0.7 mph1.1 kmh 29.07 in984.4 mb 0.00 in0.0 mm 0.00 in0.0 mm 0.01 in0.3 mm
05:27 PM 57.7°F14.3°C 43.5°F6.4°C 59% Calm Calm -- 29.07 in984.4 mb 0.00 in0.0 mm 0.00 in0.0 mm 0.01 in0.3 mm
05:32 PM 57.2°F14.0°C 43.4°F6.3°C 60% Calm Calm -- 29.07 in984.4 mb 0.00 in0.0 mm 0.00 in0.0 mm 0.01 in0.3 mm
05:37 PM 57.0°F13.9°C 43.7°F6.5°C 61% Calm Calm 1.6 mph2.6 kmh 29.07 in984.4 mb 0.00 in0.0 mm 0.00 in0.0 mm 0.01 in0.3 mm
05:41 PM 56.8°F13.8°C 44.4°F6.9°C 63% Calm Calm -- 29.07 in984.4 mb 0.00 in0.0 mm 0.00 in0.0 mm 0.01 in0.3 mm
05:47 PM 56.5°F13.6°C 44.0°F6.7°C 63% Calm Calm -- 29.07 in984.4 mb 0.00 in0.0 mm 0.00 in0.0 mm 0.01 in0.3 mm
05:52 PM 56.1°F13.4°C 43.7°F6.5°C 63% Calm Calm -- 29.07 in984.4 mb 0.00 in0.0 mm 0.00 in0.0 mm 0.01 in0.3 mm
05:57 PM 55.8°F13.2°C 43.4°F6.3°C 63% Calm Calm -- 29.08 in984.8 mb 0.00 in0.0 mm 0.00 in0.0 mm 0.01 in0.3 mm
06:01 PM 55.6°F13.1°C 44.0°F6.7°C 65% Calm Calm 2.2 mph3.5 kmh 29.07 in984.4 mb 0.00 in0.0 mm 0.00 in0.0 mm 0.01 in0.3 mm
06:07 PM 55.2°F12.9°C 44.5°F6.9°C 67% Calm Calm -- 29.07 in984.4 mb 0.00 in0.0 mm 0.00 in0.0 mm 0.01 in0.3 mm
06:12 PM 55.0°F12.8°C 44.3°F6.8°C 67% Calm Calm -- 29.07 in984.4 mb 0.00 in0.0 mm 0.00 in0.0 mm 0.01 in0.3 mm
06:17 PM 54.7°F12.6°C 44.3°F6.8°C 68% Calm Calm -- 29.07 in984.4 mb 0.00 in0.0 mm 0.00 in0.0 mm 0.01 in0.3 mm
06:21 PM 54.3°F12.4°C 44.0°F6.7°C 68% 1.6 mph NW2.6 kmh NW 3.1 mph5.0 kmh 29.08 in984.8 mb 0.00 in0.0 mm 0.00 in0.0 mm 0.01 in0.3 mm
06:27 PM 53.8°F12.1°C 43.5°F6.4°C 68% Calm Calm -- 29.08 in984.8 mb 0.00 in0.0 mm 0.00 in0.0 mm 0.01 in0.3 mm
06:32 PM 53.4°F11.9°C 43.1°F6.2°C 68% Calm Calm -- 29.08 in984.8 mb 0.00 in0.0 mm 0.00 in0.0 mm 0.01 in0.3 mm
06:37 PM 52.9°F11.6°C 42.6°F5.9°C 68% Calm Calm -- 29.08 in984.8 mb 0.00 in0.0 mm 0.00 in0.0 mm 0.01 in0.3 mm
06:41 PM 52.7°F11.5°C 42.8°F6.0°C 69% Calm Calm -- 29.08 in984.8 mb 0.00 in0.0 mm 0.00 in0.0 mm 0.01 in0.3 mm
06:47 PM 52.5°F11.4°C 43.8°F6.6°C 72% 0.7 mph NNW1.1 kmh NNW 3.1 mph5.0 kmh 29.08 in984.8 mb 0.00 in0.0 mm 0.00 in0.0 mm 0.01 in0.3 mm
06:52 PM 52.2°F11.2°C 43.4°F6.3°C 72% 1.6 mph NW2.6 kmh NW 3.8 mph6.1 kmh 29.08 in984.8 mb 0.00 in0.0 mm 0.00 in0.0 mm 0.01 in0.3 mm
06:57 PM 52.2°F11.2°C 43.8°F6.6°C 73% Calm Calm 3.1 mph5.0 kmh 29.08 in984.8 mb 0.00 in0.0 mm 0.00 in0.0 mm 0.01 in0.3 mm
07:01 PM 52.0°F11.1°C 43.6°F6.4°C 73% Calm Calm 2.2 mph3.5 kmh 29.08 in984.8 mb 0.00 in0.0 mm 0.00 in0.0 mm 0.01 in0.3 mm
07:07 PM 51.6°F10.9°C 43.3°F6.3°C 73% Calm Calm -- 29.09 in985.1 mb 0.00 in0.0 mm 0.00 in0.0 mm 0.01 in0.3 mm
07:12 PM 51.6°F10.9°C 43.3°F6.3°C 73% Calm Calm 0.7 mph1.1 kmh 29.08 in984.8 mb 0.00 in0.0 mm 0.00 in0.0 mm 0.01 in0.3 mm
07:17 PM 51.4°F10.8°C 43.4°F6.3°C 74% 1.6 mph NW2.6 kmh NW 3.1 mph5.0 kmh 29.08 in984.8 mb 0.00 in0.0 mm 0.00 in0.0 mm 0.01 in0.3 mm
07:21 PM 51.3°F10.7°C 43.6°F6.4°C 75% 1.6 mph NNW2.6 kmh NNW 3.1 mph5.0 kmh 29.08 in984.8 mb 0.00 in0.0 mm 0.00 in0.0 mm 0.01 in0.3 mm
07:27 PM 50.9°F10.5°C 43.3°F6.3°C 75% 0.7 mph NW1.1 kmh NW 3.1 mph5.0 kmh 29.08 in984.8 mb 0.00 in0.0 mm 0.00 in0.0 mm 0.01 in0.3 mm
07:32 PM 50.7°F10.4°C 43.4°F6.3°C 76% 1.6 mph NNW2.6 kmh NNW 3.1 mph5.0 kmh 29.08 in984.8 mb 0.00 in0.0 mm 0.00 in0.0 mm 0.01 in0.3 mm
07:37 PM 50.5°F10.3°C 43.3°F6.3°C 76% Calm Calm -- 29.08 in984.8 mb 0.00 in0.0 mm 0.00 in0.0 mm 0.01 in0.3 mm
07:41 PM 50.7°F10.4°C 43.8°F6.6°C 77% Calm Calm 0.7 mph1.1 kmh 29.08 in984.8 mb 0.00 in0.0 mm 0.00 in0.0 mm 0.01 in0.3 mm
07:47 PM 50.5°F10.3°C 43.6°F6.4°C 77% 1.6 mph NW2.6 kmh NW 3.1 mph5.0 kmh 29.08 in984.8 mb 0.00 in0.0 mm 0.00 in0.0 mm 0.01 in0.3 mm
07:52 PM 50.5°F10.3°C 43.6°F6.4°C 77% 2.2 mph NW3.5 kmh NW 3.8 mph6.1 kmh 29.08 in984.8 mb 0.00 in0.0 mm 0.00 in0.0 mm 0.01 in0.3 mm
07:57 PM 50.5°F10.3°C 43.9°F6.6°C 78% Calm Calm 1.6 mph2.6 kmh 29.08 in984.8 mb 0.00 in0.0 mm 0.00 in0.0 mm 0.01 in0.3 mm
08:01 PM 50.5°F10.3°C 43.9°F6.6°C 78% 1.6 mph NW2.6 kmh NW 2.2 mph3.5 kmh 29.09 in985.1 mb 0.00 in0.0 mm 0.00 in0.0 mm 0.01 in0.3 mm
08:07 PM 50.7°F10.4°C 44.1°F6.7°C 78% Calm Calm 2.2 mph3.5 kmh 29.08 in984.8 mb 0.00 in0.0 mm 0.00 in0.0 mm 0.01 in0.3 mm
08:12 PM 50.5°F10.3°C 43.9°F6.6°C 78% Calm Calm -- 29.08 in984.8 mb 0.00 in0.0 mm 0.00 in0.0 mm 0.01 in0.3 mm
08:17 PM 50.5°F10.3°C 43.9°F6.6°C 78% Calm Calm -- 29.07 in984.4 mb 0.00 in0.0 mm 0.00 in0.0 mm 0.01 in0.3 mm
08:21 PM 50.5°F10.3°C 43.9°F6.6°C 78% Calm Calm 1.6 mph2.6 kmh 29.07 in984.4 mb 0.00 in0.0 mm 0.00 in0.0 mm 0.01 in0.3 mm
08:27 PM 50.4°F10.2°C 44.1°F6.7°C 79% Calm Calm 1.6 mph2.6 kmh 29.08 in984.8 mb 0.00 in0.0 mm 0.00 in0.0 mm 0.01 in0.3 mm
08:32 PM 50.4°F10.2°C 44.4°F6.9°C 80% Calm Calm -- 29.07 in984.4 mb 0.00 in0.0 mm 0.00 in0.0 mm 0.01 in0.3 mm
08:37 PM 50.5°F10.3°C 44.9°F7.2°C 81% Calm Calm 0.7 mph1.1 kmh 29.08 in984.8 mb 0.00 in0.0 mm 0.00 in0.0 mm 0.01 in0.3 mm
08:41 PM 50.7°F10.4°C 45.1°F7.3°C 81% 0.7 mph NW1.1 kmh NW 3.1 mph5.0 kmh 29.07 in984.4 mb 0.00 in0.0 mm 0.00 in0.0 mm 0.01 in0.3 mm
08:47 PM 50.9°F10.5°C 45.3°F7.4°C 81% Calm Calm -- 29.07 in984.4 mb 0.00 in0.0 mm 0.00 in0.0 mm 0.01 in0.3 mm
08:52 PM 50.9°F10.5°C 45.3°F7.4°C 81% Calm Calm -- 29.06 in984.1 mb 0.00 in0.0 mm 0.00 in0.0 mm 0.01 in0.3 mm
08:57 PM 50.9°F10.5°C 45.3°F7.4°C 81% Calm Calm -- 29.06 in984.1 mb 0.00 in0.0 mm 0.00 in0.0 mm 0.01 in0.3 mm
09:01 PM 50.9°F10.5°C 45.0°F7.2°C 80% Calm Calm -- 29.06 in984.1 mb 0.00 in0.0 mm 0.00 in0.0 mm 0.01 in0.3 mm
09:07 PM 50.9°F10.5°C 45.0°F7.2°C 80% 3.1 mph NW5.0 kmh NW 4.5 mph7.2 kmh 29.07 in984.4 mb 0.00 in0.0 mm 0.00 in0.0 mm 0.01 in0.3 mm
09:12 PM 51.3°F10.7°C 45.6°F7.6°C 81% 3.1 mph SW5.0 kmh SW 6.0 mph9.7 kmh 29.07 in984.4 mb 0.00 in0.0 mm 0.00 in0.0 mm 0.01 in0.3 mm
09:17 PM 51.3°F10.7°C 45.6°F7.6°C 81% 3.1 mph SW5.0 kmh SW 6.0 mph9.7 kmh 29.08 in984.8 mb 0.00 in0.0 mm 0.00 in0.0 mm 0.01 in0.3 mm
09:21 PM 52.9°F11.6°C 40.2°F4.6°C 62% 9.8 mph W15.8 kmh W 23.5 mph37.8 kmh 29.08 in984.8 mb 0.00 in0.0 mm 0.00 in0.0 mm 0.01 in0.3 mm
09:27 PM 51.6°F10.9°C 39.8°F4.3°C 64% 8.3 mph NW13.4 kmh NW 15.2 mph24.5 kmh 29.10 in985.4 mb 0.01 in0.3 mm 0.10 in2.5 mm 0.02 in0.5 mm
09:32 PM 48.9°F9.4°C 39.2°F4.0°C 69% 3.1 mph NW5.0 kmh NW 6.9 mph11.1 kmh 29.09 in985.1 mb 0.05 in1.3 mm 0.48 in12.2 mm 0.06 in1.5 mm
09:37 PM 47.7°F8.7°C 39.8°F4.3°C 74% 6.0 mph NW9.7 kmh NW 8.3 mph13.4 kmh 29.10 in985.4 mb 0.06 in1.5 mm 0.12 in3.0 mm 0.07 in1.8 mm
09:41 PM 47.7°F8.7°C 40.5°F4.7°C 76% 4.5 mph W7.2 kmh W 9.8 mph15.8 kmh 29.09 in985.1 mb 0.06 in1.5 mm 0.00 in0.0 mm 0.07 in1.8 mm
09:47 PM 47.8°F8.8°C 40.6°F4.8°C 76% 6.0 mph 9.7 kmh 9.8 mph15.8 kmh 29.09 in985.1 mb 0.06 in1.5 mm 0.00 in0.0 mm 0.07 in1.8 mm
09:52 PM 48.2°F9.0°C 41.0°F5.0°C 76% 8.3 mph WNW13.4 kmh WNW 12.1 mph19.5 kmh 29.09 in985.1 mb 0.07 in1.8 mm 0.12 in3.0 mm 0.08 in2.0 mm
09:57 PM 48.4°F9.1°C 40.8°F4.9°C 75% 8.3 mph 13.4 kmh 12.1 mph19.5 kmh 29.09 in985.1 mb 0.07 in1.8 mm 0.00 in0.0 mm 0.08 in2.0 mm
10:01 PM 48.6°F9.2°C 40.7°F4.8°C 74% 6.0 mph WNW9.7 kmh WNW 9.8 mph15.8 kmh 29.09 in985.1 mb 0.07 in1.8 mm 0.00 in0.0 mm 0.08 in2.0 mm
10:07 PM 48.7°F9.3°C 40.1°F4.5°C 72% 9.2 mph WSW14.8 kmh WSW 15.2 mph24.5 kmh 29.09 in985.1 mb 0.07 in1.8 mm 0.00 in0.0 mm 0.08 in2.0 mm
10:12 PM 48.7°F9.3°C 39.8°F4.3°C 71% 9.2 mph NW14.8 kmh NW 24.4 mph39.3 kmh 29.09 in985.1 mb 0.07 in1.8 mm 0.00 in0.0 mm 0.08 in2.0 mm
10:17 PM 48.7°F9.3°C 39.8°F4.3°C 71% 9.2 mph NW14.8 kmh NW 24.4 mph39.3 kmh 29.10 in985.4 mb 0.07 in1.8 mm 0.00 in0.0 mm 0.08 in2.0 mm
10:21 PM 48.9°F9.4°C 39.6°F4.2°C 70% 5.4 mph 8.7 kmh 15.2 mph24.5 kmh 29.11 in985.8 mb 0.07 in1.8 mm 0.00 in0.0 mm 0.08 in2.0 mm
10:27 PM 48.9°F9.4°C 38.8°F3.8°C 68% 6.0 mph NW9.7 kmh NW 13.0 mph20.9 kmh 29.12 in986.1 mb 0.06 in1.5 mm 0.00 in0.0 mm 0.08 in2.0 mm
10:32 PM 49.1°F9.5°C 39.0°F3.9°C 68% 6.9 mph 11.1 kmh 13.6 mph21.9 kmh 29.12 in986.1 mb 0.02 in0.5 mm 0.00 in0.0 mm 0.08 in2.0 mm
10:37 PM 48.9°F9.4°C 38.8°F3.8°C 68% 4.5 mph 7.2 kmh 7.6 mph12.2 kmh 29.11 in985.8 mb 0.01 in0.3 mm 0.00 in0.0 mm 0.08 in2.0 mm
10:41 PM 48.7°F9.3°C 38.7°F3.7°C 68% 5.4 mph 8.7 kmh 9.8 mph15.8 kmh 29.11 in985.8 mb 0.01 in0.3 mm 0.00 in0.0 mm 0.08 in2.0 mm
10:47 PM 48.7°F9.3°C 38.7°F3.7°C 68% 3.8 mph 6.1 kmh 7.6 mph12.2 kmh 29.10 in985.4 mb 0.01 in0.3 mm 0.00 in0.0 mm 0.08 in2.0 mm
10:52 PM 48.6°F9.2°C 38.5°F3.6°C 68% 3.1 mph ENE5.0 kmh ENE 6.0 mph9.7 kmh 29.11 in985.8 mb 0.00 in0.0 mm 0.00 in0.0 mm 0.08 in2.0 mm
10:57 PM 48.6°F9.2°C 38.5°F3.6°C 68% 1.6 mph E2.6 kmh E 3.8 mph6.1 kmh 29.11 in985.8 mb 0.00 in0.0 mm 0.00 in0.0 mm 0.08 in2.0 mm
11:01 PM 48.4°F9.1°C 38.3°F3.5°C 68% Calm Calm 1.6 mph2.6 kmh 29.11 in985.8 mb 0.00 in0.0 mm 0.00 in0.0 mm 0.08 in2.0 mm
11:07 PM 48.6°F9.2°C 38.5°F3.6°C 68% 3.1 mph NW5.0 kmh NW 5.4 mph8.7 kmh 29.11 in985.8 mb 0.00 in0.0 mm 0.00 in0.0 mm 0.08 in2.0 mm
11:12 PM 48.6°F9.2°C 38.5°F3.6°C 68% 1.6 mph NW2.6 kmh NW 3.8 mph6.1 kmh 29.12 in986.1 mb 0.00 in0.0 mm 0.00 in0.0 mm 0.08 in2.0 mm
11:17 PM 48.6°F9.2°C 38.5°F3.6°C 68% Calm Calm 3.1 mph5.0 kmh 29.11 in985.8 mb 0.00 in0.0 mm 0.00 in0.0 mm 0.08 in2.0 mm
11:21 PM 48.6°F9.2°C 38.5°F3.6°C 68% 3.1 mph NW5.0 kmh NW 5.4 mph8.7 kmh 29.12 in986.1 mb 0.00 in0.0 mm 0.00 in0.0 mm 0.08 in2.0 mm
11:27 PM 48.6°F9.2°C 38.5°F3.6°C 68% 2.2 mph 3.5 kmh 3.8 mph6.1 kmh 29.11 in985.8 mb 0.00 in0.0 mm 0.00 in0.0 mm 0.08 in2.0 mm
11:32 PM 48.6°F9.2°C 38.1°F3.4°C 67% 3.1 mph NW5.0 kmh NW 6.0 mph9.7 kmh 29.11 in985.8 mb 0.00 in0.0 mm 0.00 in0.0 mm 0.08 in2.0 mm
11:37 PM 48.7°F9.3°C 37.5°F3.1°C 65% 4.5 mph NW7.2 kmh NW 7.6 mph12.2 kmh 29.11 in985.8 mb 0.00 in0.0 mm 0.00 in0.0 mm 0.08 in2.0 mm
11:42 PM 49.1°F9.5°C 37.5°F3.1°C 64% 0.7 mph NW1.1 kmh NW 3.1 mph5.0 kmh 29.11 in985.8 mb 0.00 in0.0 mm 0.00 in0.0 mm 0.08 in2.0 mm
11:47 PM 49.3°F9.6°C 36.8°F2.7°C 62% 3.1 mph SW5.0 kmh SW 6.0 mph9.7 kmh 29.11 in985.8 mb 0.00 in0.0 mm 0.00 in0.0 mm 0.08 in2.0 mm
11:52 PM 49.6°F9.8°C 36.7°F2.6°C 61% 1.6 mph SW2.6 kmh SW 3.1 mph5.0 kmh 29.12 in986.1 mb 0.00 in0.0 mm 0.00 in0.0 mm 0.08 in2.0 mm
11:57 PM 49.5°F9.7°C 36.6°F2.6°C 61% 1.6 mph W2.6 kmh W 4.5 mph7.2 kmh 29.12 in986.1 mb 0.00 in0.0 mm 0.00 in0.0 mm 0.08 in2.0 mm